createdAt,value
2023-03-23T15:59:32.815Z,99595.31
2023-03-23T16:02:00.704Z,99589.53
2023-03-23T16:04:28.967Z,99582.50
2023-03-23T16:06:59.026Z,99564.91
2023-03-23T16:09:26.890Z,99549.66
2023-03-23T16:11:54.581Z,99563.44
2023-03-23T16:14:23.648Z,99561.84
2023-03-23T16:16:52.897Z,99544.00
2023-03-23T16:19:24.466Z,99553.84
2023-03-23T16:21:52.352Z,99560.53
2023-03-23T16:24:20.081Z,99567.94
2023-03-23T16:26:47.829Z,99586.38
2023-03-23T16:29:33.845Z,99581.13
2023-03-23T16:32:06.868Z,99584.91
2023-03-23T16:34:35.644Z,99580.16
2023-03-23T16:37:03.388Z,99582.25
2023-03-23T16:39:31.139Z,99576.78
2023-03-23T16:41:58.818Z,99582.16
2023-03-23T16:44:26.629Z,99582.44
2023-03-23T16:46:54.303Z,99582.75
2023-03-23T16:49:23.348Z,99574.78
2023-03-23T16:51:51.266Z,99566.53
2023-03-23T16:54:19.003Z,99593.72
2023-03-23T16:56:48.113Z,99608.19
2023-03-23T16:59:15.820Z,99600.84
2023-03-23T17:01:43.613Z,99592.06
2023-03-23T17:04:11.365Z,99598.63
2023-03-23T17:06:40.438Z,99612.31
2023-03-23T17:09:08.376Z,99608.44
2023-03-23T17:11:36.146Z,99603.53
2023-03-23T17:14:03.891Z,99621.84
2023-03-23T17:16:31.712Z,99615.16
2023-03-23T17:18:59.448Z,99619.59
2023-03-23T17:21:27.122Z,99624.22
2023-03-23T17:23:56.091Z,99609.44
2023-03-23T17:26:23.782Z,99604.81
2023-03-23T17:28:51.508Z,99599.94
2023-03-23T17:31:19.316Z,99607.78
2023-03-23T17:33:47.006Z,99606.09
2023-03-23T17:36:14.735Z,99610.44
2023-03-23T17:38:42.443Z,99605.34
2023-03-23T17:41:11.649Z,99601.31
2023-03-23T17:43:40.577Z,99605.63
2023-03-23T17:46:09.376Z,99601.72
2023-03-23T17:48:37.412Z,99604.53
2023-03-23T17:51:05.848Z,99598.09
2023-03-23T17:53:35.587Z,99605.34
2023-03-23T17:56:03.782Z,99589.53
2023-03-23T17:58:33.089Z,99599.03
2023-03-23T18:01:00.827Z,99600.22
2023-03-23T18:03:28.752Z,99595.16
2023-03-23T18:05:59.707Z,99592.78
2023-03-23T18:08:27.984Z,99581.75
2023-03-23T18:10:56.517Z,99583.66
2023-03-23T18:13:26.126Z,99566.50
2023-03-23T18:15:56.303Z,99569.88
2023-03-23T18:18:25.061Z,99566.69
2023-03-23T18:20:56.424Z,99562.09
2023-03-23T18:23:24.120Z,99557.50
2023-03-23T18:25:53.631Z,99567.78
2023-03-23T18:28:21.509Z,99563.94
2023-03-23T18:30:49.509Z,99562.00
2023-03-23T18:33:20.355Z,99575.34
2023-03-23T18:35:48.813Z,99566.16
2023-03-23T18:38:16.693Z,99556.31
2023-03-23T18:40:44.867Z,99559.41
2023-03-23T18:43:13.000Z,99555.00
2023-03-23T18:45:41.030Z,99545.19
2023-03-23T18:48:09.550Z,99556.34
2023-03-23T18:50:38.672Z,99549.81
2023-03-23T18:53:07.039Z,99548.84
2023-03-23T18:55:34.699Z,99540.69
2023-03-23T18:58:02.843Z,99543.66
2023-03-23T19:00:30.964Z,99537.84
2023-03-23T19:02:58.715Z,99530.50
2023-03-23T19:05:27.479Z,99526.59
2023-03-23T19:07:56.633Z,99540.38
2023-03-23T19:10:24.414Z,99533.66
2023-03-23T19:12:52.320Z,99545.00
2023-03-23T19:15:19.999Z,99548.75
2023-03-23T19:17:48.114Z,99534.03
2023-03-23T19:20:26.898Z,99541.72
2023-03-23T19:23:04.987Z,99544.03
2023-03-23T19:25:33.227Z,99538.47
2023-03-23T19:30:31.678Z,99531.81
2023-03-23T19:32:59.381Z,99528.47
2023-03-23T19:35:27.181Z,99517.44
2023-03-23T19:37:54.903Z,99513.97
2023-03-23T19:40:39.544Z,99505.03
2023-03-23T19:43:11.590Z,99513.00
2023-03-23T19:45:41.822Z,99507.00
2023-03-23T19:48:10.142Z,99518.16
2023-03-23T19:50:39.823Z,99506.31
2023-03-23T19:53:07.567Z,99497.50
2023-03-23T19:55:36.888Z,99503.66
2023-03-23T19:58:05.123Z,99507.41
2023-03-23T20:00:34.925Z,99506.28
2023-03-23T20:03:03.808Z,99498.34
2023-03-23T20:05:31.592Z,99494.16
2023-03-23T20:07:59.301Z,99488.03
2023-03-23T20:10:26.975Z,99476.31
2023-03-23T20:12:56.067Z,99483.56
2023-03-23T20:15:24.474Z,99480.22
2023-03-23T20:17:53.103Z,99478.22
2023-03-23T20:20:21.036Z,99464.97
2023-03-23T20:22:50.013Z,99476.00
2023-03-23T20:25:19.908Z,99468.47
2023-03-23T20:27:47.702Z,99467.09
2023-03-23T20:30:18.837Z,99460.38
2023-03-23T20:32:47.430Z,99457.88
2023-03-23T20:35:16.287Z,99460.69
2023-03-23T20:37:44.615Z,99457.06
2023-03-23T20:40:14.638Z,99453.28
2023-03-23T20:42:44.102Z,99450.22
2023-03-23T20:45:13.314Z,99442.81
2023-03-23T20:47:42.650Z,99442.13
2023-03-23T20:50:12.364Z,99432.38
2023-03-23T20:52:41.718Z,99430.97
2023-03-23T20:55:09.698Z,99425.94
2023-03-23T20:57:38.799Z,99425.09
2023-03-23T21:00:09.425Z,99422.47
2023-03-23T21:02:37.276Z,99414.91
2023-03-23T21:05:07.321Z,99414.09
2023-03-23T21:07:36.248Z,99406.97
2023-03-23T21:10:04.896Z,99415.22
2023-03-23T21:12:32.936Z,99419.38
2023-03-23T21:15:00.979Z,99417.16
2023-03-23T21:17:28.938Z,99403.75
2023-03-23T21:19:56.859Z,99412.97
2023-03-23T21:22:25.958Z,99404.03
2023-03-23T21:24:53.600Z,99400.16
2023-03-23T21:27:21.249Z,99399.03
2023-03-23T21:29:48.984Z,99392.91
2023-03-23T21:32:16.800Z,99391.06
2023-03-23T21:34:46.681Z,99395.53
2023-03-23T21:37:15.974Z,99396.50
2023-03-23T21:39:45.528Z,99387.84
2023-03-23T21:42:14.607Z,99389.25
2023-03-23T21:44:43.471Z,99381.16
2023-03-23T21:47:12.744Z,99387.03
2023-03-23T21:49:41.428Z,99387.59
2023-03-23T21:52:09.106Z,99375.72
2023-03-23T21:54:37.032Z,99373.63
2023-03-23T21:57:06.155Z,99366.38
2023-03-23T21:59:34.269Z,99363.31
2023-03-23T22:02:02.240Z,99359.69
2023-03-23T22:04:30.072Z,99359.41
2023-03-23T22:06:57.896Z,99355.50
2023-03-23T22:09:26.266Z,99358.28
2023-03-23T22:11:54.127Z,99338.22
2023-03-23T22:14:23.632Z,99343.50
2023-03-23T22:16:51.543Z,99337.09
2023-03-23T22:19:19.305Z,99334.03
2023-03-23T22:21:47.292Z,99334.03
2023-03-23T22:24:15.121Z,99321.22
2023-03-23T22:26:42.978Z,99317.16
2023-03-23T22:29:11.540Z,99316.88
2023-03-23T22:31:41.889Z,99304.06
2023-03-23T22:34:09.909Z,99289.53
2023-03-23T22:36:38.878Z,99294.28
2023-03-23T22:39:07.279Z,99303.34
2023-03-23T22:41:36.943Z,99288.25
2023-03-23T22:44:05.218Z,99287.97
2023-03-23T22:46:32.980Z,99289.78
2023-03-23T22:49:02.109Z,99272.34
2023-03-23T22:51:29.919Z,99288.09
2023-03-23T22:53:57.715Z,99272.63
2023-03-23T22:56:25.816Z,99271.25
2023-03-23T22:58:54.519Z,99261.75
2023-03-23T23:01:23.530Z,99266.63
2023-03-23T23:03:51.676Z,99269.28
2023-03-23T23:06:21.541Z,99251.44
2023-03-23T23:08:49.848Z,99249.22
2023-03-23T23:11:19.238Z,99256.88
2023-03-23T23:13:47.547Z,99236.69
2023-03-23T23:16:17.189Z,99236.13
2023-03-23T23:18:46.531Z,99234.03
2023-03-23T23:21:18.357Z,99230.41
2023-03-23T23:23:48.024Z,99229.28
2023-03-23T23:26:16.754Z,99223.44
2023-03-23T23:28:45.223Z,99213.13
2023-03-23T23:31:26.199Z,99224.28
2023-03-23T23:33:55.375Z,99219.13
2023-03-23T23:36:23.491Z,99226.38
2023-03-23T23:38:52.639Z,99215.66
2023-03-23T23:41:20.629Z,99207.69
2023-03-23T23:43:48.439Z,99207.69
2023-03-23T23:46:16.338Z,99203.94
2023-03-23T23:48:44.747Z,99200.47
2023-03-23T23:51:15.214Z,99194.19
2023-03-23T23:53:44.109Z,99201.28
2023-03-23T23:56:14.530Z,99201.00
2023-03-23T23:58:42.296Z,99195.72
